createdAt,value
2022-09-28T00:01:25.123Z,34.28
2022-09-28T00:03:52.494Z,37.78
2022-09-28T00:06:20.156Z,32.70
2022-09-28T00:08:46.692Z,47.05
2022-09-28T00:11:15.249Z,50.55
2022-09-28T00:13:42.895Z,52.75
2022-09-28T00:16:11.116Z,51.05
2022-09-28T00:18:37.745Z,55.83
2022-09-28T00:21:06.505Z,58.85
2022-09-28T00:23:33.432Z,60.70
2022-09-28T00:26:05.864Z,62.30
2022-09-28T00:28:32.348Z,73.47
2022-09-28T00:30:59.071Z,4.30
2022-09-28T00:33:26.009Z,2.80
2022-09-28T00:35:56.591Z,4.53
2022-09-28T00:38:26.147Z,3.53
2022-09-28T00:40:52.591Z,2.60
2022-09-28T00:43:20.398Z,4.50
2022-09-28T00:45:53.286Z,2.88
2022-09-28T00:48:19.834Z,3.72
2022-09-28T00:50:46.399Z,6.38
2022-09-28T00:53:19.791Z,4.25
2022-09-28T00:55:49.696Z,4.50
2022-09-28T00:58:18.853Z,4.03
2022-09-28T01:00:45.862Z,2.72
2022-09-28T01:03:14.282Z,4.20
2022-09-28T01:05:40.933Z,3.67
2022-09-28T01:08:07.477Z,4.53
2022-09-28T01:10:34.043Z,4.60
2022-09-28T01:13:00.583Z,4.85
2022-09-28T01:15:28.517Z,5.10
2022-09-28T01:18:00.573Z,6.40
2022-09-28T01:20:51.265Z,5.68
2022-09-28T01:23:27.798Z,5.22
2022-09-28T01:26:14.497Z,5.53
2022-09-28T01:28:43.162Z,3.35
2022-09-28T01:31:10.563Z,3.20
2022-09-28T01:33:57.322Z,2.40
2022-09-28T01:36:42.824Z,2.63
2022-09-28T01:39:10.840Z,3.90
2022-09-28T01:41:40.355Z,4.75
2022-09-28T01:44:09.048Z,2.58
2022-09-28T01:46:38.114Z,3.85
2022-09-28T01:49:11.096Z,3.45
2022-09-28T01:51:37.664Z,3.08
2022-09-28T01:54:10.059Z,4.88
2022-09-28T01:56:42.802Z,2.30
2022-09-28T01:59:12.289Z,5.20
2022-09-28T02:01:43.943Z,3.10
2022-09-28T02:04:21.072Z,5.05
2022-09-28T02:07:08.924Z,2.95
2022-09-28T02:09:38.576Z,4.20
2022-09-28T02:12:27.455Z,3.80
2022-09-28T02:14:56.452Z,5.25
2022-09-28T02:17:23.022Z,4.72
2022-09-28T02:19:49.507Z,2.88
2022-09-28T02:22:32.083Z,5.82
2022-09-28T02:25:21.137Z,3.47
2022-09-28T02:27:56.801Z,3.50
2022-09-28T02:30:23.313Z,6.35
2022-09-28T02:32:51.180Z,4.60
2022-09-28T02:35:18.729Z,6.20
2022-09-28T02:37:45.844Z,4.68
2022-09-28T02:40:20.569Z,4.68
2022-09-28T02:43:07.778Z,2.40
2022-09-28T02:45:44.704Z,3.28
2022-09-28T02:48:14.326Z,3.20
2022-09-28T02:50:59.891Z,3.47
2022-09-28T02:53:35.452Z,3.65
2022-09-28T02:56:05.157Z,3.75
2022-09-28T02:58:37.795Z,3.08
2022-09-28T03:01:15.240Z,4.22
2022-09-28T03:03:55.485Z,3.75
2022-09-28T03:06:30.501Z,3.85
2022-09-28T03:09:14.358Z,3.13
2022-09-28T03:11:43.360Z,5.43
2022-09-28T03:14:10.141Z,4.75
2022-09-28T03:16:47.110Z,4.72
2022-09-28T03:19:14.197Z,3.00
2022-09-28T03:21:41.367Z,3.70
2022-09-28T03:24:10.486Z,4.72
2022-09-28T03:26:38.342Z,4.25
2022-09-28T03:29:05.914Z,4.03
2022-09-28T03:31:32.554Z,4.25
2022-09-28T03:33:59.168Z,3.97
2022-09-28T03:36:25.693Z,3.95
2022-09-28T03:38:53.233Z,3.92
2022-09-28T03:41:19.874Z,7.10
2022-09-28T03:43:46.337Z,4.78
2022-09-28T03:46:13.930Z,4.35
2022-09-28T03:48:45.365Z,2.28
2022-09-28T03:51:12.503Z,2.92
2022-09-28T03:53:39.352Z,4.70
2022-09-28T03:56:13.976Z,3.83
2022-09-28T03:58:41.350Z,2.35
2022-09-28T04:01:16.449Z,18.48
2022-09-28T04:03:45.161Z,5.47
2022-09-28T04:06:12.058Z,3.92
2022-09-28T04:08:38.865Z,4.82
2022-09-28T04:11:05.595Z,4.22
2022-09-28T04:13:33.582Z,4.38
2022-09-28T04:16:01.181Z,4.65
2022-09-28T04:18:29.945Z,5.15
2022-09-28T04:21:10.777Z,4.85
2022-09-28T04:23:50.574Z,3.78
2022-09-28T04:26:18.741Z,31.38
2022-09-28T04:29:06.821Z,33.22
2022-09-28T04:31:38.631Z,34.58
2022-09-28T04:34:05.181Z,32.53
2022-09-28T04:36:32.035Z,26.83
2022-09-28T04:38:58.490Z,6.45
2022-09-28T04:41:26.792Z,6.60
2022-09-28T04:43:53.222Z,6.28
2022-09-28T04:46:20.164Z,7.70
2022-09-28T04:49:01.656Z,4.95
2022-09-28T04:51:48.077Z,4.32
2022-09-28T04:54:14.535Z,3.42
2022-09-28T04:56:41.797Z,5.00
2022-09-28T04:59:08.410Z,3.08
2022-09-28T05:01:37.035Z,4.20
2022-09-28T05:04:25.941Z,3.78
2022-09-28T05:07:15.824Z,24.33
2022-09-28T05:09:42.919Z,42.70
2022-09-28T05:12:09.793Z,40.65
2022-09-28T05:14:37.217Z,42.47
2022-09-28T05:17:05.110Z,44.70
2022-09-28T05:19:47.082Z,44.05
2022-09-28T05:22:14.908Z,45.72
2022-09-28T05:24:46.444Z,44.70
2022-09-28T05:27:13.516Z,45.90
2022-09-28T05:29:40.422Z,45.35
2022-09-28T05:32:25.180Z,50.42
2022-09-28T05:35:11.912Z,50.60
2022-09-28T05:37:45.167Z,50.42
2022-09-28T05:40:12.082Z,49.70
2022-09-28T05:42:38.945Z,50.05
2022-09-28T05:45:06.422Z,48.55
2022-09-28T05:47:37.306Z,48.15
2022-09-28T05:50:08.923Z,46.00
2022-09-28T05:52:35.371Z,48.97
2022-09-28T05:55:03.319Z,50.30
2022-09-28T05:57:30.357Z,52.13
2022-09-28T05:59:57.497Z,50.75
2022-09-28T06:02:24.507Z,49.60
2022-09-28T06:04:51.988Z,44.63
2022-09-28T06:07:18.473Z,47.65
2022-09-28T06:09:44.935Z,45.88
2022-09-28T06:12:16.847Z,42.65
2022-09-28T06:14:47.185Z,43.22
2022-09-28T06:17:13.662Z,44.65
2022-09-28T06:19:40.874Z,41.28
2022-09-28T06:22:22.563Z,41.47
2022-09-28T06:24:55.597Z,43.80
2022-09-28T06:27:23.975Z,38.83
2022-09-28T06:29:50.489Z,38.40
2022-09-28T06:32:17.033Z,42.20
2022-09-28T06:34:46.595Z,36.03
2022-09-28T06:37:13.103Z,37.30
2022-09-28T06:39:39.656Z,37.95
2022-09-28T06:42:06.406Z,38.72
2022-09-28T06:44:52.804Z,34.42
2022-09-28T06:47:42.085Z,38.75
2022-09-28T06:50:20.700Z,39.78
2022-09-28T06:53:07.037Z,38.67
2022-09-28T06:55:49.153Z,37.38
2022-09-28T06:58:17.850Z,36.03
2022-09-28T07:00:44.343Z,36.70
2022-09-28T07:03:11.941Z,34.83
2022-09-28T07:05:57.231Z,34.95
2022-09-28T07:09:10.929Z,39.45
2022-09-28T07:12:04.256Z,41.25
2022-09-28T07:14:47.746Z,43.47
2022-09-28T07:19:42.760Z,45.58
2022-09-28T07:22:18.615Z,47.17
2022-09-28T07:24:46.667Z,44.97
2022-09-28T07:27:31.854Z,42.55
2022-09-28T07:30:14.027Z,41.30
2022-09-28T07:32:55.491Z,39.42
2022-09-28T07:35:52.384Z,44.00
2022-09-28T07:38:20.313Z,42.47
2022-09-28T07:41:05.644Z,41.15
2022-09-28T07:43:32.502Z,42.03
2022-09-28T07:45:59.059Z,40.40
2022-09-28T07:48:25.738Z,41.97
2022-09-28T07:51:00.051Z,40.75
2022-09-28T07:53:32.102Z,39.42
2022-09-28T07:56:17.393Z,38.70
2022-09-28T07:59:17.621Z,39.10
2022-09-28T08:02:02.648Z,39.20
2022-09-28T08:04:30.395Z,36.45
2022-09-28T08:06:56.936Z,36.03
2022-09-28T08:09:23.394Z,38.00
2022-09-28T08:12:10.565Z,42.13
2022-09-28T08:15:10.299Z,41.20
2022-09-28T08:17:46.225Z,38.33
2022-09-28T08:20:31.589Z,35.33
2022-09-28T08:23:08.665Z,40.25
2022-09-28T08:25:39.709Z,38.58
2022-09-28T08:28:10.079Z,40.65
2022-09-28T08:30:45.164Z,39.47
2022-09-28T08:33:31.964Z,41.88
2022-09-28T08:36:16.768Z,36.08
2022-09-28T08:39:01.309Z,32.55
2022-09-28T08:41:35.226Z,34.78
2022-09-28T08:44:23.960Z,32.75
2022-09-28T08:47:54.562Z,30.15
2022-09-28T08:50:33.108Z,27.50
2022-09-28T08:56:00.526Z,32.58
2022-09-28T08:58:30.413Z,27.35
2022-09-28T09:00:58.487Z,28.25
2022-09-28T09:03:31.927Z,26.95
2022-09-28T09:06:30.178Z,27.08
2022-09-28T09:09:00.062Z,25.80
2022-09-28T09:11:38.677Z,27.02
2022-09-28T09:14:14.798Z,26.92
2022-09-28T09:17:00.004Z,25.75
2022-09-28T09:22:21.642Z,27.42
2022-09-28T09:24:48.885Z,24.15
2022-09-28T09:27:29.973Z,19.60
2022-09-28T09:30:06.611Z,18.35
2022-09-28T09:32:40.143Z,12.52
2022-09-28T09:35:06.876Z,13.13
2022-09-28T09:38:01.895Z,10.93
2022-09-28T09:40:29.095Z,13.07
2022-09-28T09:43:07.275Z,10.43
2022-09-28T09:45:44.138Z,12.15
2022-09-28T09:48:33.825Z,10.15
2022-09-28T09:51:03.069Z,9.88
2022-09-28T09:53:37.612Z,29.52
2022-09-28T09:56:15.160Z,10.77
2022-09-28T09:59:11.605Z,11.95
2022-09-28T10:01:56.712Z,12.85
2022-09-28T10:04:39.481Z,12.30
2022-09-28T10:07:20.621Z,11.32
2022-09-28T10:09:48.936Z,12.50
2022-09-28T10:12:26.472Z,11.20
2022-09-28T10:14:55.275Z,11.82
2022-09-28T10:17:27.378Z,12.15
2022-09-28T10:20:13.402Z,12.27
2022-09-28T10:23:02.023Z,11.32
2022-09-28T10:25:31.260Z,9.43
2022-09-28T10:27:59.413Z,9.35
2022-09-28T10:30:25.919Z,7.90
2022-09-28T10:32:55.155Z,9.20
2022-09-28T10:35:23.957Z,10.02
2022-09-28T10:38:03.273Z,9.40
2022-09-28T10:40:49.225Z,8.45
2022-09-28T10:43:23.482Z,8.63
2022-09-28T10:46:06.187Z,9.45
2022-09-28T10:48:45.999Z,8.25
2022-09-28T10:51:12.478Z,8.75
2022-09-28T10:53:40.048Z,7.80
2022-09-28T10:56:21.353Z,9.13
2022-09-28T10:58:52.145Z,7.78
2022-09-28T11:01:37.287Z,8.90
2022-09-28T11:04:06.126Z,9.35
2022-09-28T11:06:37.230Z,11.13
2022-09-28T11:09:22.651Z,9.35
2022-09-28T11:11:49.610Z,9.35
2022-09-28T11:14:41.336Z,7.80
2022-09-28T11:17:22.788Z,7.28
2022-09-28T11:19:49.358Z,6.93
2022-09-28T11:22:25.140Z,8.82
2022-09-28T11:25:20.250Z,6.68
2022-09-28T11:27:52.970Z,6.28
2022-09-28T11:30:23.196Z,5.72
2022-09-28T11:33:14.993Z,5.88
2022-09-28T11:36:13.890Z,6.15
2022-09-28T11:38:47.411Z,7.57
2022-09-28T11:41:32.755Z,12.10
2022-09-28T11:44:18.380Z,8.60
2022-09-28T11:47:03.500Z,7.22
2022-09-28T11:49:38.977Z,8.23
2022-09-28T11:52:10.891Z,8.60
2022-09-28T11:54:44.272Z,6.67
2022-09-28T11:57:14.866Z,7.32
2022-09-28T11:59:53.537Z,7.95
2022-09-28T12:02:40.385Z,8.68
2022-09-28T12:05:22.633Z,7.38
2022-09-28T12:08:00.116Z,8.77
2022-09-28T12:10:47.484Z,8.85
2022-09-28T12:13:22.542Z,7.95
2022-09-28T12:18:38.334Z,7.07
2022-09-28T12:21:09.824Z,7.75
2022-09-28T12:23:38.143Z,9.90
2022-09-28T12:26:28.457Z,7.53
2022-09-28T12:28:58.235Z,8.50
2022-09-28T12:31:35.488Z,7.57
2022-09-28T12:34:02.227Z,6.85
2022-09-28T12:36:33.907Z,7.00
2022-09-28T12:39:27.124Z,7.15
2022-09-28T12:42:16.616Z,6.90
2022-09-28T12:45:02.191Z,7.63
2022-09-28T12:47:38.352Z,6.55
2022-09-28T12:53:03.004Z,6.15
2022-09-28T12:55:39.817Z,4.13
2022-09-28T12:58:16.048Z,5.95
2022-09-28T13:00:49.819Z,5.78
2022-09-28T13:03:35.065Z,5.57
2022-09-28T13:06:20.285Z,7.53
2022-09-28T13:08:56.436Z,3.47
2022-09-28T13:11:26.177Z,4.75
2022-09-28T13:14:27.878Z,7.55
2022-09-28T13:17:02.976Z,5.22
2022-09-28T13:19:47.764Z,5.78
2022-09-28T13:22:16.919Z,7.45
2022-09-28T13:24:44.355Z,6.28
2022-09-28T13:27:15.043Z,4.25
2022-09-28T13:29:41.945Z,4.55
2022-09-28T13:32:09.791Z,4.22
2022-09-28T13:34:36.775Z,5.88
2022-09-28T13:37:18.833Z,6.22
2022-09-28T13:39:45.261Z,5.57
2022-09-28T13:42:12.785Z,3.92
2022-09-28T13:44:55.490Z,5.20
2022-09-28T13:47:37.648Z,6.88
2022-09-28T13:50:23.188Z,4.80
2022-09-28T13:52:58.225Z,5.53
2022-09-28T13:55:43.149Z,5.22
2022-09-28T13:58:18.109Z,5.47
2022-09-28T14:00:45.588Z,5.57
2022-09-28T14:03:38.056Z,5.03
2022-09-28T14:06:08.071Z,5.32
2022-09-28T14:08:44.734Z,7.90
2022-09-28T14:11:24.738Z,5.78
2022-09-28T14:14:01.305Z,6.10
2022-09-28T14:16:31.258Z,6.57
2022-09-28T14:21:38.075Z,5.40
2022-09-28T14:24:07.926Z,6.10
2022-09-28T14:26:39.549Z,5.82
2022-09-28T14:29:32.232Z,4.43
2022-09-28T14:32:03.653Z,6.45
2022-09-28T14:34:35.209Z,6.07
2022-09-28T14:37:22.178Z,7.93
2022-09-28T14:40:07.517Z,7.40
2022-09-28T14:42:34.145Z,5.28
2022-09-28T14:45:05.260Z,5.78
2022-09-28T14:47:36.766Z,9.50
2022-09-28T14:50:21.980Z,6.03
2022-09-28T14:52:53.278Z,7.68
2022-09-28T14:55:23.841Z,6.20
2022-09-28T14:57:52.471Z,5.63
2022-09-28T15:00:21.130Z,5.45
2022-09-28T15:02:49.152Z,4.45
2022-09-28T15:05:38.091Z,6.13
2022-09-28T15:08:05.715Z,4.93
2022-09-28T15:10:33.549Z,4.43
2022-09-28T15:13:04.120Z,6.18
2022-09-28T15:15:33.177Z,5.78
2022-09-28T15:18:04.438Z,6.05
2022-09-28T15:20:33.938Z,5.88
2022-09-28T15:23:00.410Z,7.78
2022-09-28T15:25:28.215Z,4.47
2022-09-28T15:27:56.426Z,6.25
2022-09-28T15:30:23.289Z,5.78
2022-09-28T15:32:53.077Z,5.03
2022-09-28T15:35:21.141Z,5.13
2022-09-28T15:37:52.102Z,6.18
2022-09-28T15:40:28.924Z,5.28
2022-09-28T15:42:59.032Z,6.55
2022-09-28T15:45:36.686Z,5.70
2022-09-28T15:48:17.126Z,5.47
2022-09-28T15:50:53.810Z,5.90
2022-09-28T15:53:20.265Z,6.35
2022-09-28T15:55:50.204Z,9.63
2022-09-28T15:58:18.331Z,9.52
2022-09-28T16:00:46.370Z,7.72
2022-09-28T16:03:15.918Z,7.82
2022-09-28T16:05:46.146Z,10.07
2022-09-28T16:08:22.104Z,7.35
2022-09-28T16:10:53.391Z,6.75
2022-09-28T16:13:20.481Z,5.47
2022-09-28T16:15:55.401Z,8.20
2022-09-28T16:18:23.516Z,6.30
2022-09-28T16:20:51.510Z,6.93
2022-09-28T16:23:25.593Z,7.65
2022-09-28T16:25:59.376Z,7.88
2022-09-28T16:28:25.861Z,7.30
2022-09-28T16:31:23.170Z,6.60
2022-09-28T16:33:54.195Z,8.82
2022-09-28T16:36:22.377Z,8.57
2022-09-28T16:38:49.473Z,15.75
2022-09-28T16:41:19.399Z,30.80
2022-09-28T16:43:46.406Z,28.73
2022-09-28T16:46:14.395Z,16.42
2022-09-28T16:48:45.784Z,15.43
2022-09-28T16:51:12.249Z,14.48
2022-09-28T16:53:57.299Z,16.83
2022-09-28T16:56:23.816Z,14.52
2022-09-28T16:58:50.697Z,15.40
2022-09-28T17:01:17.209Z,12.50
2022-09-28T17:03:46.882Z,14.88
2022-09-28T17:06:13.963Z,15.85
2022-09-28T17:08:40.446Z,15.90
2022-09-28T17:11:15.889Z,13.45
2022-09-28T17:13:45.809Z,13.73
2022-09-28T17:16:12.335Z,12.98
2022-09-28T17:18:39.970Z,9.68
2022-09-28T17:21:09.521Z,9.98
2022-09-28T17:23:35.991Z,11.32
2022-09-28T17:26:02.892Z,11.50
2022-09-28T17:28:33.434Z,10.93
2022-09-28T17:31:00.007Z,10.95
2022-09-28T17:33:26.624Z,11.77
2022-09-28T17:35:57.605Z,12.75
2022-09-28T17:38:24.065Z,12.50
2022-09-28T17:40:50.493Z,14.23
2022-09-28T17:43:17.099Z,12.15
2022-09-28T17:45:45.103Z,13.40
2022-09-28T17:48:15.871Z,12.60
2022-09-28T17:50:46.262Z,16.00
2022-09-28T17:53:13.518Z,16.13
2022-09-28T17:55:40.425Z,15.95
2022-09-28T17:58:12.897Z,14.07
2022-09-28T18:00:40.249Z,14.68
2022-09-28T18:03:09.681Z,15.77
2022-09-28T18:05:36.837Z,15.45
2022-09-28T18:08:03.862Z,15.30
2022-09-28T18:12:12.010Z,19.55
2022-09-28T18:14:39.920Z,25.52
2022-09-28T18:17:06.377Z,25.95
2022-09-28T18:19:32.808Z,21.98
2022-09-28T18:21:59.332Z,22.58
2022-09-28T18:24:25.776Z,20.17
2022-09-28T18:26:52.159Z,20.20
2022-09-28T18:29:18.616Z,23.08
2022-09-28T18:31:45.017Z,34.90
2022-09-28T18:34:12.399Z,39.08
2022-09-28T18:36:38.848Z,44.50
2022-09-28T18:39:05.259Z,46.88
2022-09-28T18:41:32.539Z,48.33
2022-09-28T18:44:02.198Z,49.63
2022-09-28T18:46:29.478Z,57.60
2022-09-28T18:48:56.041Z,74.75
2022-09-28T18:51:22.992Z,79.53
2022-09-28T18:53:50.125Z,84.30
2022-09-28T18:56:21.001Z,79.15
2022-09-28T18:58:48.051Z,75.95
2022-09-28T19:01:31.744Z,84.05
2022-09-28T19:04:02.152Z,79.30
2022-09-28T19:06:28.963Z,77.50
2022-09-28T19:08:55.936Z,69.60
2022-09-28T19:11:23.037Z,3.05
2022-09-28T19:13:49.506Z,4.57
2022-09-28T19:16:20.888Z,2.45
2022-09-28T19:18:47.565Z,12.95
2022-09-28T19:21:14.642Z,6.55
2022-09-28T19:23:44.757Z,7.13
2022-09-28T19:28:41.085Z,5.60
2022-09-28T19:31:09.223Z,4.20
2022-09-28T19:33:36.261Z,5.93
2022-09-28T19:36:06.761Z,5.40
2022-09-28T19:38:34.413Z,4.88
2022-09-28T19:41:01.398Z,4.60
2022-09-28T19:43:27.865Z,4.13
2022-09-28T19:45:55.955Z,4.80
2022-09-28T19:48:26.203Z,4.10
2022-09-28T19:50:56.430Z,3.30
2022-09-28T19:53:23.590Z,4.40
2022-09-28T19:55:50.795Z,7.60
2022-09-28T19:58:17.236Z,2.88
2022-09-28T20:00:43.653Z,3.70
2022-09-28T20:03:10.092Z,3.90
2022-09-28T20:05:38.816Z,4.93
2022-09-28T20:08:05.299Z,5.30
2022-09-28T20:10:31.717Z,4.30
2022-09-28T20:12:59.008Z,4.47
2022-09-28T20:15:25.529Z,3.25
2022-09-28T20:17:52.013Z,62.25
2022-09-28T20:20:18.559Z,56.60
2022-09-28T20:22:44.973Z,58.03
2022-09-28T20:25:11.475Z,61.13
2022-09-28T20:27:39.269Z,62.47
2022-09-28T20:30:06.632Z,61.60
2022-09-28T20:32:33.383Z,59.22
2022-09-28T20:34:59.815Z,61.20
2022-09-28T20:37:26.461Z,58.03
2022-09-28T20:39:53.304Z,58.80
2022-09-28T20:42:20.153Z,57.58
2022-09-28T20:44:46.760Z,57.60
2022-09-28T20:47:13.275Z,58.95
2022-09-28T20:49:39.714Z,61.13
2022-09-28T20:52:06.153Z,59.72
2022-09-28T20:54:32.573Z,60.30
2022-09-28T20:56:59.038Z,62.33
2022-09-28T20:59:26.550Z,61.00
2022-09-28T21:01:53.394Z,58.88
2022-09-28T21:04:19.976Z,59.92
2022-09-28T21:06:46.531Z,60.75
2022-09-28T21:09:12.934Z,57.92
2022-09-28T21:11:39.481Z,67.63
2022-09-28T21:14:06.867Z,64.30
2022-09-28T21:16:34.524Z,54.95
2022-09-28T21:19:01.034Z,60.25
2022-09-28T21:21:27.589Z,56.92
2022-09-28T21:23:54.911Z,61.53
2022-09-28T21:26:25.636Z,56.63
2022-09-28T21:28:55.783Z,65.72
2022-09-28T21:31:28.254Z,55.95
2022-09-28T21:33:55.586Z,57.20
2022-09-28T21:36:22.005Z,55.47
2022-09-28T21:38:49.334Z,67.25
2022-09-28T21:41:15.849Z,51.33
2022-09-28T21:43:42.362Z,51.35
2022-09-28T21:46:09.805Z,59.88
2022-09-28T21:48:36.233Z,52.78
2022-09-28T21:51:04.095Z,52.25
2022-09-28T21:53:31.909Z,58.88
2022-09-28T21:55:59.023Z,56.15
2022-09-28T21:58:30.317Z,52.30
2022-09-28T22:01:07.891Z,50.60
2022-09-28T22:03:35.370Z,49.65
2022-09-28T22:06:05.288Z,53.03
2022-09-28T22:08:32.089Z,54.03
2022-09-28T22:11:02.113Z,51.80
2022-09-28T22:13:29.016Z,51.22
2022-09-28T22:15:55.863Z,53.42
2022-09-28T22:18:22.354Z,53.00
2022-09-28T22:20:48.812Z,52.17
2022-09-28T22:23:15.269Z,51.13
2022-09-28T22:25:41.719Z,51.92
2022-09-28T22:28:08.226Z,45.85
2022-09-28T22:30:34.913Z,48.40
2022-09-28T22:33:02.438Z,49.63
2022-09-28T22:35:28.932Z,47.20
2022-09-28T22:37:55.450Z,49.63
2022-09-28T22:40:22.706Z,47.33
2022-09-28T22:42:49.561Z,47.08
2022-09-28T22:45:16.029Z,49.72
2022-09-28T22:47:42.686Z,47.70
2022-09-28T22:50:09.271Z,50.53
2022-09-28T22:52:35.673Z,52.47
2022-09-28T22:55:02.129Z,51.95
2022-09-28T22:57:29.434Z,52.72
2022-09-28T22:59:55.877Z,47.50
2022-09-28T23:02:22.408Z,47.42
2022-09-28T23:04:48.825Z,47.92
2022-09-28T23:07:15.324Z,53.35
2022-09-28T23:09:41.747Z,51.15
2022-09-28T23:12:08.237Z,48.20
2022-09-28T23:14:34.690Z,51.30
2022-09-28T23:17:01.210Z,52.15
2022-09-28T23:19:27.658Z,56.80
2022-09-28T23:21:54.537Z,53.83
2022-09-28T23:24:21.011Z,51.33
2022-09-28T23:26:47.475Z,53.45
2022-09-28T23:29:13.936Z,53.17
2022-09-28T23:31:40.638Z,54.00
2022-09-28T23:34:07.231Z,53.55
2022-09-28T23:36:34.519Z,58.63
2022-09-28T23:39:01.186Z,65.07
2022-09-28T23:41:27.797Z,53.05
2022-09-28T23:43:54.278Z,63.70
2022-09-28T23:46:21.403Z,61.28
2022-09-28T23:48:48.458Z,58.50
2022-09-28T23:51:15.126Z,57.22
2022-09-28T23:53:41.543Z,56.70
2022-09-28T23:56:08.050Z,56.67
2022-09-28T23:58:34.449Z,60.22
